Time;durP1;ratioP1;P1;durP2;ratioP2;P2;SDS_P1;SDS_P2;PMS_P1;PMS_P2;Temp;Humidity;BMP_temperature;BMP_pressure;BME280_temperature;BME280_humidity;BME280_pressure;Samples;Min_cycle;Max_cycle;Signal;HPM_P1;HPM_P2
2022/03/12 00:01:37;;;;;;;18.70;11.77;;;7.10;22.40;;;;;;5032754;28;20217;-73
2022/03/12 00:04:05;;;;;;;17.48;11.20;;;7.10;22.40;;;;;;5038930;28;20206;-73
2022/03/12 00:06:32;;;;;;;16.00;11.88;;;7.10;22.50;;;;;;5033590;28;20215;-73
2022/03/12 00:08:58;;;;;;;22.33;11.95;;;7.10;22.70;;;;;;5032498;28;20616;-74
2022/03/12 00:11:32;;;;;;;18.30;11.48;;;7.10;22.60;;;;;;5032306;28;20216;-74
2022/03/12 00:13:59;;;;;;;16.42;11.70;;;7.10;22.90;;;;;;5032370;28;20204;-74
2022/03/12 00:16:27;;;;;;;16.73;11.05;;;7.10;22.80;;;;;;5032688;28;20230;-74
2022/03/12 00:18:56;;;;;;;18.02;11.80;;;7.10;22.90;;;;;;5032399;28;20218;-74
2022/03/12 00:21:24;;;;;;;17.70;12.10;;;7.10;23.00;;;;;;5032558;28;20205;-73
2022/03/12 00:23:51;;;;;;;21.15;13.15;;;7.10;22.90;;;;;;5033978;28;20213;-73
2022/03/12 00:26:18;;;;;;;15.23;10.40;;;7.10;23.00;;;;;;5032710;28;20209;-73
2022/03/12 00:28:47;;;;;;;17.00;10.82;;;7.10;23.10;;;;;;5033006;28;20203;-73
2022/03/12 00:31:14;;;;;;;15.23;11.15;;;7.00;23.10;;;;;;5032221;28;20217;-72
2022/03/12 00:33:41;;;;;;;16.90;11.02;;;7.10;23.20;;;;;;5032122;28;20598;-74
2022/03/12 00:36:09;;;;;;;18.58;11.05;;;7.10;23.10;;;;;;5033118;28;20230;-73
2022/03/12 00:38:36;;;;;;;16.55;12.02;;;7.00;23.20;;;;;;5033345;28;20241;-73
2022/03/12 00:41:04;;;;;;;19.90;11.77;;;7.00;23.40;;;;;;5032747;28;20285;-75
2022/03/12 00:43:30;;;;;;;23.42;12.30;;;7.00;23.20;;;;;;5031956;28;20325;-74
2022/03/12 00:45:59;;;;;;;16.80;11.40;;;7.00;23.30;;;;;;5032071;28;20261;-73
2022/03/12 00:48:26;;;;;;;18.52;11.38;;;7.00;23.20;;;;;;5032978;28;20265;-74
2022/03/12 00:50:53;;;;;;;17.17;11.43;;;7.00;23.30;;;;;;5033221;28;20599;-72
2022/03/12 00:53:20;;;;;;;17.75;11.38;;;7.00;23.40;;;;;;5033014;28;20305;-74
2022/03/12 00:55:47;;;;;;;18.00;11.32;;;7.00;23.40;;;;;;5035222;28;20250;-73
2022/03/12 00:58:14;;;;;;;17.92;11.73;;;6.90;23.30;;;;;;5036074;28;20267;-73
2022/03/12 01:00:41;;;;;;;18.75;11.85;;;7.00;23.50;;;;;;5035599;28;20210;-75
2022/03/12 01:03:09;;;;;;;20.10;11.95;;;7.00;23.60;;;;;;5036554;28;20220;-73
2022/03/12 01:05:46;;;;;;;17.75;11.88;;;7.00;23.80;;;;;;5035830;28;20240;-73
2022/03/12 01:08:14;;;;;;;18.48;11.52;;;7.00;23.70;;;;;;5036000;28;20203;-73
2022/03/12 01:10:42;;;;;;;16.27;11.20;;;7.10;23.70;;;;;;5035162;28;20213;-73
2022/03/12 01:13:09;;;;;;;17.42;12.10;;;7.20;23.70;;;;;;5035911;28;20205;-73
2022/03/12 01:15:36;;;;;;;19.67;11.95;;;7.00;23.60;;;;;;5035692;28;20236;-73
2022/03/12 01:18:03;;;;;;;17.35;12.10;;;7.00;23.80;;;;;;5035663;28;20258;-73
2022/03/12 01:20:31;;;;;;;18.50;11.75;;;6.90;23.90;;;;;;5035974;28;20210;-73
2022/03/12 01:22:58;;;;;;;21.27;12.65;;;6.90;23.90;;;;;;5035209;28;20292;-73
2022/03/12 01:25:26;;;;;;;17.40;11.80;;;6.90;23.90;;;;;;5035571;28;20226;-73
2022/03/12 01:27:54;;;;;;;20.20;11.82;;;6.90;24.00;;;;;;5035255;28;20296;-74
2022/03/12 01:30:27;;;;;;;19.52;11.57;;;6.90;24.30;;;;;;5035356;28;20298;-73
2022/03/12 01:32:55;;;;;;;20.05;12.52;;;6.90;24.20;;;;;;5035402;28;20607;-73
2022/03/12 01:35:22;;;;;;;18.38;11.38;;;6.90;24.40;;;;;;5035537;28;20231;-73
2022/03/12 01:37:51;;;;;;;17.70;11.05;;;6.90;24.40;;;;;;5035440;28;20226;-74
2022/03/12 01:40:18;;;;;;;16.88;11.70;;;6.90;24.40;;;;;;5035158;28;20238;-74
2022/03/12 01:42:44;;;;;;;19.23;11.73;;;6.90;24.50;;;;;;5034868;28;20210;-74
2022/03/12 01:45:13;;;;;;;18.17;12.20;;;6.90;24.40;;;;;;5035287;28;20246;-72
2022/03/12 01:47:40;;;;;;;16.55;11.15;;;6.90;24.40;;;;;;5035459;28;20202;-73
2022/03/12 01:50:09;;;;;;;18.20;11.82;;;6.90;25.00;;;;;;5035052;28;20207;-73
2022/03/12 01:52:36;;;;;;;15.10;10.80;;;6.90;24.60;;;;;;5034042;28;20673;-73
2022/03/12 01:55:06;;;;;;;17.85;12.77;;;6.90;24.60;;;;;;5058717;22;20241;-76
2022/03/12 01:57:33;;;;;;;17.88;11.32;;;6.90;24.70;;;;;;5048961;28;20215;-75
2022/03/12 02:00:00;;;;;;;17.35;11.25;;;6.80;24.70;;;;;;5040808;28;20207;-74
2022/03/12 02:02:28;;;;;;;16.20;11.82;;;6.80;24.80;;;;;;5049997;28;20213;-74
2022/03/12 02:04:56;;;;;;;15.73;11.38;;;6.80;25.00;;;;;;5042081;28;20292;-76
2022/03/12 02:07:23;;;;;;;22.08;11.93;;;6.80;25.10;;;;;;5042288;28;20206;-74
2022/03/12 02:09:50;;;;;;;19.08;12.60;;;6.70;25.20;;;;;;5045130;28;20238;-75
2022/03/12 02:12:19;;;;;;;20.73;12.90;;;6.70;25.60;;;;;;5045191;28;20203;-74
2022/03/12 02:14:46;;;;;;;17.75;12.30;;;6.70;25.20;;;;;;5044101;28;20710;-74
2022/03/12 02:17:13;;;;;;;15.80;11.85;;;6.70;25.40;;;;;;5045611;28;20302;-75
2022/03/12 02:19:41;;;;;;;23.55;12.68;;;6.60;25.40;;;;;;5051322;28;20301;-76
2022/03/12 02:22:10;;;;;;;18.50;11.70;;;6.60;25.30;;;;;;5045773;28;20267;-74
2022/03/12 02:24:39;;;;;;;18.98;11.55;;;6.60;25.50;;;;;;5050747;28;20268;-73
2022/03/12 02:27:10;;;;;;;17.40;11.93;;;6.50;25.50;;;;;;5052113;28;20288;-75
2022/03/12 02:29:38;;;;;;;19.65;11.43;;;6.60;25.60;;;;;;5054521;28;20221;-75
2022/03/12 02:32:10;;;;;;;20.50;11.60;;;6.60;25.80;;;;;;5054254;28;20675;-75
2022/03/12 02:34:41;;;;;;;16.15;11.73;;;6.50;25.90;;;;;;5057267;28;20202;-74
2022/03/12 02:37:08;;;;;;;18.17;12.30;;;6.40;25.90;;;;;;5056771;28;20274;-75
2022/03/12 02:39:37;;;;;;;17.83;11.75;;;6.40;25.90;;;;;;5055456;28;20216;-74
2022/03/12 02:42:08;;;;;;;16.90;11.30;;;6.40;26.10;;;;;;5054039;28;20214;-75
2022/03/12 02:44:35;;;;;;;20.17;12.82;;;6.40;26.30;;;;;;5047377;28;20240;-76
2022/03/12 02:47:13;;;;;;;17.50;12.32;;;6.30;26.20;;;;;;5054307;28;20216;-75
2022/03/12 02:49:43;;;;;;;17.30;12.20;;;6.30;26.20;;;;;;5058539;28;20193;-72
2022/03/12 02:52:10;;;;;;;18.30;11.40;;;6.20;26.50;;;;;;5057811;28;20208;-73
2022/03/12 02:54:40;;;;;;;17.05;12.25;;;6.10;26.80;;;;;;5057742;28;20193;-76
2022/03/12 02:57:11;;;;;;;16.63;12.32;;;6.10;26.90;;;;;;5059214;28;20259;-73
2022/03/12 02:59:53;;;;;;;17.10;11.10;;;6.00;27.10;;;;;;5058887;28;20216;-73
2022/03/12 03:02:25;;;;;;;20.30;13.48;;;6.00;27.10;;;;;;5058162;28;20233;-75
2022/03/12 03:04:53;;;;;;;19.33;12.18;;;6.00;26.90;;;;;;5056361;28;20268;-73
2022/03/12 03:07:21;;;;;;;17.77;12.25;;;6.00;27.00;;;;;;5058369;28;20215;-75
2022/03/12 03:09:49;;;;;;;17.92;11.75;;;6.00;27.20;;;;;;5056135;28;20209;-73
2022/03/12 03:12:21;;;;;;;17.83;12.40;;;5.90;27.50;;;;;;5054439;28;20198;-75
2022/03/12 03:14:49;;;;;;;17.65;12.02;;;5.90;27.70;;;;;;5053194;28;20233;-75
2022/03/12 03:17:18;;;;;;;17.65;12.55;;;5.90;27.70;;;;;;5052141;28;20240;-74
2022/03/12 03:19:46;;;;;;;17.63;11.70;;;5.90;27.70;;;;;;5055039;28;20226;-74
2022/03/12 03:22:14;;;;;;;20.80;11.60;;;5.90;27.70;;;;;;5057149;28;20214;-74
2022/03/12 03:24:41;;;;;;;17.48;12.05;;;5.80;27.60;;;;;;5056643;28;20233;-74
2022/03/12 03:27:09;;;;;;;16.15;10.88;;;5.80;27.60;;;;;;5056997;28;20209;-75
2022/03/12 03:29:38;;;;;;;17.58;11.35;;;5.80;27.60;;;;;;5056769;28;20202;-72
2022/03/12 03:32:07;;;;;;;19.15;12.15;;;5.80;27.60;;;;;;5057489;28;20279;-75
2022/03/12 03:34:34;;;;;;;19.70;12.95;;;5.90;27.70;;;;;;5051657;28;20209;-75
2022/03/12 03:37:01;;;;;;;22.80;12.50;;;5.90;27.70;;;;;;5046533;28;20207;-74
2022/03/12 03:39:28;;;;;;;17.70;11.50;;;5.90;27.70;;;;;;5045574;28;20260;-75
2022/03/12 03:41:55;;;;;;;29.50;12.20;;;5.90;27.70;;;;;;5045442;28;20210;-74
2022/03/12 03:44:27;;;;;;;20.00;12.35;;;5.90;27.70;;;;;;5048100;28;20224;-75
2022/03/12 03:46:55;;;;;;;20.30;11.82;;;5.90;27.70;;;;;;5050701;28;20221;-75
2022/03/12 03:49:23;;;;;;;16.45;11.45;;;5.80;27.60;;;;;;5047543;28;20223;-75
2022/03/12 03:51:50;;;;;;;20.08;12.43;;;5.80;27.60;;;;;;5046797;28;20216;-75
2022/03/12 03:54:19;;;;;;;17.77;11.27;;;5.90;27.70;;;;;;5048140;28;20274;-74
2022/03/12 03:56:46;;;;;;;18.60;12.23;;;5.90;27.70;;;;;;5046321;28;20214;-74
2022/03/12 03:59:13;;;;;;;18.75;11.98;;;5.90;27.70;;;;;;5046764;28;20304;-76
2022/03/12 04:01:41;;;;;;;20.60;12.27;;;5.90;27.70;;;;;;5045871;28;20256;-75
2022/03/12 04:04:12;;;;;;;16.15;11.82;;;5.80;27.60;;;;;;5047745;28;20354;-75
2022/03/12 04:06:39;;;;;;;21.90;12.18;;;5.80;27.70;;;;;;5047906;28;20237;-74
2022/03/12 04:09:06;;;;;;;19.05;12.95;;;5.70;27.60;;;;;;5049772;28;20205;-74
2022/03/12 04:11:34;;;;;;;16.67;11.25;;;5.80;27.60;;;;;;5047891;28;20214;-75
2022/03/12 04:14:05;;;;;;;20.42;11.75;;;5.70;27.60;;;;;;5045378;28;20206;-74
2022/03/12 04:16:33;;;;;;;21.38;11.95;;;5.70;27.60;;;;;;5041095;28;20233;-75
2022/03/12 04:19:05;;;;;;;21.25;12.77;;;5.60;27.50;;;;;;5041392;28;20221;-75
2022/03/12 04:21:34;;;;;;;19.85;12.00;;;5.60;27.50;;;;;;5039157;28;20196;-76
2022/03/12 04:24:01;;;;;;;15.57;11.27;;;5.60;27.50;;;;;;5037287;28;20219;-74
2022/03/12 04:26:28;;;;;;;15.80;10.70;;;5.50;27.40;;;;;;5037881;28;20723;-76
2022/03/12 04:28:57;;;;;;;20.55;11.52;;;5.60;28.20;;;;;;5039661;28;20226;-76
2022/03/12 04:31:24;;;;;;;22.23;12.68;;;5.60;27.90;;;;;;5039809;28;20206;-75
2022/03/12 04:33:52;;;;;;;17.25;11.60;;;5.70;27.90;;;;;;5040136;28;20273;-76
2022/03/12 04:36:19;;;;;;;21.05;12.50;;;5.70;27.60;;;;;;5037774;28;20229;-75
2022/03/12 04:38:49;;;;;;;16.38;11.10;;;5.70;27.60;;;;;;5039460;28;20229;-76
2022/03/12 04:41:17;;;;;;;18.30;12.13;;;5.70;27.60;;;;;;5035662;28;20660;-77
2022/03/12 04:43:44;;;;;;;14.90;10.77;;;5.60;27.50;;;;;;5041256;28;20215;-74
2022/03/12 04:46:11;;;;;;;21.95;12.20;;;5.60;27.50;;;;;;5037231;28;20309;-75
2022/03/12 04:48:39;;;;;;;17.73;10.68;;;5.60;27.50;;;;;;5040999;28;20220;-75
2022/03/12 04:51:06;;;;;;;19.25;11.13;;;5.70;27.60;;;;;;5049765;28;20206;-75
2022/03/12 04:53:32;;;;;;;20.58;12.10;;;5.60;27.50;;;;;;5055196;28;20338;-75
2022/03/12 04:56:01;;;;;;;20.15;13.48;;;5.60;28.10;;;;;;5051109;28;20240;-74
2022/03/12 04:58:28;;;;;;;19.63;12.30;;;5.50;28.40;;;;;;5050675;28;20213;-74
2022/03/12 05:00:55;;;;;;;16.33;11.25;;;5.60;27.50;;;;;;5050788;28;20299;-74
2022/03/12 05:03:24;;;;;;;17.20;10.65;;;5.60;28.00;;;;;;5043377;28;20275;-75
2022/03/12 05:05:52;;;;;;;22.17;11.18;;;5.60;27.50;;;;;;5041279;28;20240;-76
2022/03/12 05:08:20;;;;;;;18.52;10.73;;;5.60;28.00;;;;;;5035362;28;20224;-76
2022/03/12 05:10:51;;;;;;;20.08;10.63;;;5.50;28.00;;;;;;5033896;28;20513;-75
2022/03/12 05:13:23;;;;;;;18.73;11.38;;;5.40;27.30;;;;;;5035003;28;20213;-74
2022/03/12 05:15:51;;;;;;;19.17;11.90;;;5.40;27.30;;;;;;5035755;28;20225;-76
2022/03/12 05:18:19;;;;;;;19.77;10.85;;;5.50;27.40;;;;;;5036658;28;20615;-75
2022/03/12 05:20:47;;;;;;;17.08;10.65;;;5.40;27.30;;;;;;5043041;28;20225;-73
2022/03/12 05:23:16;;;;;;;16.40;10.57;;;5.40;27.30;;;;;;5049519;28;20214;-74
2022/03/12 05:25:44;;;;;;;16.05;10.65;;;5.50;27.00;;;;;;5047257;28;20229;-74
2022/03/12 05:28:13;;;;;;;15.57;10.68;;;5.40;26.90;;;;;;5046973;28;20205;-75
2022/03/12 05:30:43;;;;;;;12.38;9.38;;;5.40;27.30;;;;;;5042066;28;20198;-75
2022/03/12 05:33:10;;;;;;;15.77;10.75;;;5.40;27.30;;;;;;5049806;28;20296;-74
2022/03/12 05:35:41;;;;;;;15.40;10.35;;;5.40;27.90;;;;;;5048255;28;20230;-73
2022/03/12 05:38:09;;;;;;;21.60;11.23;;;5.40;27.30;;;;;;5052159;28;20205;-76
2022/03/12 05:40:39;;;;;;;16.67;11.43;;;5.40;27.30;;;;;;5048521;28;20238;-74
2022/03/12 05:43:13;;;;;;;14.38;10.43;;;5.30;27.30;;;;;;5052815;28;20245;-74
2022/03/12 05:45:45;;;;;;;15.57;10.60;;;5.20;27.20;;;;;;5046488;28;20229;-75
2022/03/12 05:48:13;;;;;;;15.13;9.65;;;5.20;27.20;;;;;;5044834;28;20201;-75
2022/03/12 05:50:41;;;;;;;15.20;10.40;;;5.20;27.20;;;;;;5042536;28;20206;-74
2022/03/12 05:53:09;;;;;;;18.05;10.63;;;5.30;27.90;;;;;;5041595;28;20208;-75
2022/03/12 05:55:39;;;;;;;16.40;10.48;;;5.30;27.30;;;;;;5045304;28;20271;-75
2022/03/12 05:58:07;;;;;;;14.15;9.98;;;5.30;27.30;;;;;;5052187;28;20226;-74
2022/03/12 06:00:34;;;;;;;17.80;11.23;;;5.30;27.30;;;;;;5050534;28;20300;-74
2022/03/12 06:03:05;;;;;;;15.63;10.35;;;5.30;27.30;;;;;;5050963;28;20211;-74
2022/03/12 06:05:41;;;;;;;19.15;10.68;;;5.30;27.30;;;;;;5051601;28;20237;-76
2022/03/12 06:08:16;;;;;;;16.42;10.77;;;5.30;27.30;;;;;;5051111;28;20217;-75
2022/03/12 06:10:45;;;;;;;19.17;11.43;;;5.30;27.30;;;;;;5040277;28;20213;-75
2022/03/12 06:13:13;;;;;;;13.43;9.90;;;5.40;27.30;;;;;;5037708;28;20277;-74
2022/03/12 06:15:41;;;;;;;17.05;9.60;;;5.40;27.30;;;;;;5037727;28;20605;-74
2022/03/12 06:18:09;;;;;;;16.17;11.60;;;5.40;27.30;;;;;;5037146;28;20730;-76
2022/03/12 06:20:37;;;;;;;15.82;11.07;;;5.40;27.30;;;;;;5037912;28;20224;-74
2022/03/12 06:23:06;;;;;;;18.88;11.65;;;5.40;27.70;;;;;;5048887;28;20251;-76
2022/03/12 06:25:34;;;;;;;15.52;10.52;;;5.50;27.80;;;;;;5048700;28;20236;-76
2022/03/12 06:28:03;;;;;;;18.85;11.13;;;5.50;27.90;;;;;;5045620;28;20206;-74
2022/03/12 06:30:30;;;;;;;19.92;11.38;;;5.60;28.00;;;;;;5050615;28;20209;-74
2022/03/12 06:32:58;;;;;;;18.75;11.48;;;5.70;27.60;;;;;;5055042;28;20260;-74
2022/03/12 06:35:28;;;;;;;13.93;10.25;;;5.70;27.60;;;;;;5054234;28;20241;-74
2022/03/12 06:37:56;;;;;;;15.40;11.40;;;5.70;27.60;;;;;;5043830;28;20223;-74
2022/03/12 06:40:28;;;;;;;16.38;10.90;;;5.80;27.60;;;;;;5037303;28;20940;-75
2022/03/12 06:42:56;;;;;;;16.02;11.27;;;5.90;27.70;;;;;;5035965;28;20208;-74
2022/03/12 06:45:24;;;;;;;15.27;10.70;;;5.90;27.70;;;;;;5035843;28;20229;-74
2022/03/12 06:47:52;;;;;;;15.98;10.85;;;5.90;27.70;;;;;;5034399;28;20282;-75
2022/03/12 06:50:22;;;;;;;13.75;11.02;;;5.90;27.70;;;;;;5037015;28;20289;-75
2022/03/12 06:52:51;;;;;;;17.13;10.32;;;6.10;27.80;;;;;;5034200;28;20212;-76
2022/03/12 06:55:21;;;;;;;26.20;11.85;;;6.00;27.80;;;;;;5035883;28;20240;-75
2022/03/12 06:57:48;;;;;;;13.88;10.10;;;6.10;27.80;;;;;;5036048;28;20215;-75
2022/03/12 07:00:18;;;;;;;16.15;10.32;;;6.20;27.90;;;;;;5036411;28;20233;-76
2022/03/12 07:02:45;;;;;;;15.27;10.65;;;6.20;26.90;;;;;;5036597;28;20215;-75
2022/03/12 07:05:12;;;;;;;15.27;10.43;;;6.10;27.20;;;;;;5036729;28;20710;-76
2022/03/12 07:07:39;;;;;;;17.38;10.90;;;6.10;27.20;;;;;;5037641;28;20297;-76
2022/03/12 07:10:09;;;;;;;18.83;10.85;;;6.20;27.20;;;;;;5038018;28;20296;-75
2022/03/12 07:12:42;;;;;;;15.23;10.52;;;6.10;27.20;;;;;;5042702;28;20273;-74
2022/03/12 07:15:11;;;;;;;17.42;11.38;;;6.10;27.30;;;;;;5052094;28;20233;-77
2022/03/12 07:17:38;;;;;;;19.35;11.18;;;6.00;27.80;;;;;;5049393;28;20213;-76
2022/03/12 07:20:06;;;;;;;15.63;11.20;;;6.00;27.80;;;;;;5038522;28;20229;-74
2022/03/12 07:22:33;;;;;;;14.13;10.57;;;6.00;27.80;;;;;;5038695;28;20216;-77
2022/03/12 07:25:00;;;;;;;18.77;12.05;;;6.10;27.80;;;;;;5040208;28;20249;-74
2022/03/12 07:27:29;;;;;;;18.58;11.50;;;6.10;27.80;;;;;;5039115;28;20276;-74
2022/03/12 07:29:56;;;;;;;15.57;10.95;;;6.10;27.80;;;;;;5040434;28;20296;-75
2022/03/12 07:32:23;;;;;;;16.08;11.13;;;6.20;27.90;;;;;;5038556;28;20209;-75
2022/03/12 07:34:50;;;;;;;13.65;10.70;;;6.30;28.00;;;;;;5037462;28;20234;-75
2022/03/12 07:37:17;;;;;;;16.00;11.07;;;6.50;27.70;;;;;;5037563;28;20263;-76
2022/03/12 07:39:46;;;;;;;18.05;11.73;;;6.50;28.00;;;;;;5041688;28;20583;-75
2022/03/12 07:42:21;;;;;;;19.33;11.48;;;6.50;27.90;;;;;;5050216;28;20207;-75
2022/03/12 07:44:57;;;;;;;18.67;11.63;;;6.60;27.60;;;;;;5049750;28;20224;-74
2022/03/12 07:47:33;;;;;;;16.52;11.45;;;6.60;27.50;;;;;;5052207;28;20217;-74
2022/03/12 07:50:10;;;;;;;17.50;11.60;;;6.80;27.20;;;;;;5052584;28;20210;-75
2022/03/12 07:52:46;;;;;;;14.77;11.63;;;6.90;27.00;;;;;;5052836;28;20209;-75
2022/03/12 07:55:18;;;;;;;16.73;11.88;;;7.20;26.60;;;;;;5052252;28;20292;-74
2022/03/12 07:57:46;;;;;;;15.68;11.82;;;7.10;26.50;;;;;;5050065;28;20211;-74
2022/03/12 08:00:16;;;;;;;25.90;13.18;;;7.10;26.50;;;;;;5046814;28;20230;-74
2022/03/12 08:02:44;;;;;;;17.08;12.20;;;7.10;26.40;;;;;;5044832;28;20206;-76
2022/03/12 08:05:12;;;;;;;17.30;11.25;;;7.10;26.20;;;;;;5047831;28;20231;-75
2022/03/12 08:07:40;;;;;;;19.45;12.32;;;7.40;25.70;;;;;;5050221;28;20218;-76
2022/03/12 08:10:07;;;;;;;16.77;11.45;;;7.60;25.20;;;;;;5050110;28;20229;-73
2022/03/12 08:12:35;;;;;;;19.52;11.45;;;7.60;25.20;;;;;;5050750;28;20217;-74
2022/03/12 08:15:05;;;;;;;16.20;11.05;;;7.70;24.70;;;;;;5053376;28;20290;-75
2022/03/12 08:17:37;;;;;;;15.55;10.85;;;7.80;24.50;;;;;;5054614;28;20518;-76
2022/03/12 08:20:07;;;;;;;16.92;12.20;;;8.00;24.50;;;;;;5053387;28;20235;-74
2022/03/12 08:22:41;;;;;;;17.80;11.98;;;8.10;24.20;;;;;;5055286;28;20251;-74
2022/03/12 08:25:12;;;;;;;15.43;11.40;;;8.20;24.10;;;;;;5056315;28;20305;-75
2022/03/12 08:27:44;;;;;;;19.08;12.68;;;8.50;23.50;;;;;;5056414;28;20283;-74
2022/03/12 08:30:12;;;;;;;14.10;10.65;;;8.60;23.50;;;;;;5053621;28;20188;-75
2022/03/12 08:32:47;;;;;;;23.58;12.55;;;8.70;23.30;;;;;;5052841;28;20222;-75
2022/03/12 08:35:17;;;;;;;16.92;11.95;;;8.80;23.20;;;;;;5043225;28;20261;-76
2022/03/12 08:37:44;;;;;;;15.20;11.50;;;9.10;22.70;;;;;;5036273;28;20325;-75
2022/03/12 08:40:14;;;;;;;19.38;11.70;;;9.30;22.00;;;;;;5044235;28;20228;-75
2022/03/12 08:42:42;;;;;;;18.30;12.20;;;9.30;22.00;;;;;;5030597;28;20207;-75
2022/03/12 08:45:11;;;;;;;20.50;11.40;;;9.60;22.20;;;;;;5017313;28;20252;-75
2022/03/12 08:47:39;;;;;;;18.25;11.43;;;9.60;22.20;;;;;;5017297;28;20258;-76
2022/03/12 08:50:09;;;;;;;16.80;12.07;;;9.70;22.30;;;;;;5022379;28;20208;-76
2022/03/12 08:52:36;;;;;;;17.38;11.73;;;9.60;22.20;;;;;;5018497;28;20208;-77
2022/03/12 08:55:03;;;;;;;13.90;10.93;;;9.60;22.20;;;;;;5017113;28;20330;-76
2022/03/12 08:57:30;;;;;;;15.57;11.57;;;9.70;22.30;;;;;;5021139;28;20230;-76
2022/03/12 08:59:57;;;;;;;15.20;12.07;;;10.00;22.00;;;;;;5035383;28;20231;-76
2022/03/12 09:02:24;;;;;;;16.95;12.15;;;9.90;21.70;;;;;;5033963;28;20213;-75
2022/03/12 09:04:52;;;;;;;19.63;12.48;;;10.30;21.00;;;;;;5035982;28;20250;-75
2022/03/12 09:07:21;;;;;;;19.05;12.00;;;10.40;20.50;;;;;;5037663;28;20212;-76
2022/03/12 09:09:47;;;;;;;14.93;12.23;;;10.30;20.80;;;;;;5040990;28;20196;-76
2022/03/12 09:12:14;;;;;;;14.45;11.98;;;10.00;21.30;;;;;;5046162;28;20207;-76
2022/03/12 09:14:42;;;;;;;17.00;12.98;;;10.20;21.10;;;;;;5042100;28;20223;-75
2022/03/12 09:17:09;;;;;;;17.70;12.50;;;10.50;20.70;;;;;;5042649;28;20286;-75
2022/03/12 09:19:36;;;;;;;22.33;13.30;;;10.30;20.80;;;;;;5043287;28;20280;-75
2022/03/12 09:22:04;;;;;;;17.30;12.27;;;10.50;21.30;;;;;;5048115;28;20227;-76
2022/03/12 09:24:34;;;;;;;16.77;11.98;;;10.60;20.60;;;;;;5040311;28;20273;-74
2022/03/12 09:27:01;;;;;;;22.67;13.50;;;10.90;20.10;;;;;;5019375;28;20218;-75
2022/03/12 09:29:28;;;;;;;19.10;12.13;;;11.20;19.50;;;;;;5018259;28;20269;-76
2022/03/12 09:31:55;;;;;;;18.23;13.27;;;11.30;19.20;;;;;;5017778;28;20214;-75
2022/03/12 09:34:22;;;;;;;17.60;12.57;;;11.40;19.30;;;;;;5018433;28;20234;-75
2022/03/12 09:36:49;;;;;;;21.30;12.65;;;11.50;19.60;;;;;;5019439;28;20299;-76
2022/03/12 09:39:16;;;;;;;24.35;13.75;;;11.50;19.40;;;;;;5019142;28;20208;-76
2022/03/12 09:41:44;;;;;;;22.13;12.70;;;11.10;19.70;;;;;;5033646;28;20716;-74
2022/03/12 09:44:12;;;;;;;22.40;14.25;;;11.30;19.80;;;;;;5042903;28;20265;-74
2022/03/12 09:46:39;;;;;;;18.10;13.68;;;11.40;19.60;;;;;;5052840;28;20233;-76
2022/03/12 09:49:09;;;;;;;21.80;13.05;;;11.30;19.80;;;;;;5051364;28;20214;-75
2022/03/12 09:51:36;;;;;;;17.58;12.80;;;11.30;20.10;;;;;;5049869;28;20222;-75
2022/03/12 09:54:03;;;;;;;20.00;13.15;;;11.60;19.60;;;;;;5047700;28;20214;-75
2022/03/12 09:56:30;;;;;;;18.85;14.07;;;11.50;19.70;;;;;;5047693;28;20240;-77
2022/03/12 09:58:58;;;;;;;18.52;12.68;;;11.50;20.20;;;;;;5055592;28;20572;-75
2022/03/12 10:01:25;;;;;;;20.42;13.65;;;11.80;19.60;;;;;;5048540;28;20234;-75
2022/03/12 10:03:52;;;;;;;19.08;14.35;;;12.00;19.30;;;;;;5048360;28;20231;-75
2022/03/12 10:06:19;;;;;;;23.73;14.82;;;12.20;19.40;;;;;;5047418;28;20246;-75
2022/03/12 10:08:47;;;;;;;19.73;14.10;;;12.00;19.80;;;;;;5049433;28;20215;-75
2022/03/12 10:11:14;;;;;;;18.30;13.25;;;12.20;19.80;;;;;;5039417;28;20319;-76
2022/03/12 10:13:41;;;;;;;19.73;13.60;;;12.30;19.60;;;;;;5037984;28;20219;-76
2022/03/12 10:16:09;;;;;;;18.35;13.93;;;12.20;19.90;;;;;;5045230;28;20244;-75
2022/03/12 10:18:36;;;;;;;21.00;14.68;;;12.40;19.70;;;;;;5041434;28;20215;-75
2022/03/12 10:21:03;;;;;;;26.23;13.90;;;12.50;19.60;;;;;;5036935;28;20241;-75
2022/03/12 10:23:31;;;;;;;17.80;12.40;;;12.40;19.60;;;;;;5037312;28;20203;-75
2022/03/12 10:25:58;;;;;;;19.55;13.73;;;12.60;19.60;;;;;;5040001;28;20305;-74
2022/03/12 10:28:29;;;;;;;20.52;14.35;;;12.60;19.60;;;;;;5039582;28;20215;-76
2022/03/12 10:30:56;;;;;;;20.55;13.25;;;12.50;19.80;;;;;;5035548;28;20208;-76
2022/03/12 10:33:25;;;;;;;17.80;13.00;;;12.50;19.70;;;;;;5035763;28;20207;-75
2022/03/12 10:35:52;;;;;;;18.63;13.25;;;12.60;19.80;;;;;;5036767;28;20773;-74
2022/03/12 10:38:22;;;;;;;18.63;13.75;;;12.70;19.90;;;;;;5036874;28;20253;-75
2022/03/12 10:40:49;;;;;;;19.50;13.38;;;12.70;20.00;;;;;;5036740;28;20230;-76
2022/03/12 10:43:16;;;;;;;18.57;12.80;;;12.70;20.00;;;;;;5036546;28;20614;-76
2022/03/12 10:45:46;;;;;;;18.02;13.55;;;12.90;20.00;;;;;;5036800;28;20480;-75
2022/03/12 10:48:14;;;;;;;19.48;13.25;;;13.10;19.80;;;;;;5038062;28;20571;-76
2022/03/12 10:50:44;;;;;;;19.40;13.50;;;13.10;19.80;;;;;;5036798;28;20211;-75
2022/03/12 10:53:12;;;;;;;15.87;12.43;;;13.20;19.90;;;;;;5038082;28;20485;-76
2022/03/12 10:55:41;;;;;;;16.00;12.30;;;13.30;19.60;;;;;;5036848;28;20521;-75
2022/03/12 10:58:10;;;;;;;18.40;13.20;;;13.40;19.80;;;;;;5038870;28;20565;-75
2022/03/12 11:00:44;;;;;;;18.63;13.27;;;13.50;19.60;;;;;;5042875;28;20487;-75
2022/03/12 11:03:16;;;;;;;17.57;12.60;;;13.70;19.30;;;;;;5042930;28;20839;-75
2022/03/12 11:05:52;;;;;;;20.30;13.23;;;14.00;19.20;;;;;;5049585;28;20453;-75
2022/03/12 11:08:21;;;;;;;15.53;12.90;;;14.10;19.20;;;;;;5052961;28;20545;-76
2022/03/12 11:10:58;;;;;;;19.27;12.87;;;14.10;19.40;;;;;;5049598;28;20512;-75
2022/03/12 11:16:35;;;;;;;18.30;13.07;;;14.10;20.00;;;;;;5051910;28;20441;-76
2022/03/12 11:19:07;;;;;;;22.90;13.00;;;14.50;19.70;;;;;;5056172;28;20432;-74
2022/03/12 11:21:39;;;;;;;18.50;11.73;;;14.70;19.30;;;;;;5055438;28;20555;-74
2022/03/12 11:24:08;;;;;;;15.57;11.97;;;14.50;19.60;;;;;;5056045;28;20433;-74
2022/03/12 11:26:49;;;;;;;15.73;11.90;;;14.70;19.10;;;;;;5051045;28;20972;-75
2022/03/12 11:29:17;;;;;;;16.13;12.23;;;14.60;20.30;;;;;;5040353;28;20442;-75
2022/03/12 11:31:46;;;;;;;15.03;11.57;;;14.40;20.40;;;;;;5038959;28;20450;-76
2022/03/12 11:34:22;;;;;;;15.60;12.20;;;14.40;21.20;;;;;;5039922;28;20934;-75
2022/03/12 11:37:14;;;;;;;16.13;12.07;;;14.30;20.10;;;;;;5039494;28;20512;-75
2022/03/12 11:39:43;;;;;;;17.97;12.07;;;14.40;20.50;;;;;;5037316;28;20506;-74
2022/03/12 11:42:13;;;;;;;13.03;10.67;;;14.80;20.20;;;;;;5056951;28;20486;-74
2022/03/12 11:44:46;;;;;;;15.90;11.77;;;15.10;19.60;;;;;;5056240;28;20481;-75
2022/03/12 11:47:14;;;;;;;18.10;12.07;;;15.30;19.50;;;;;;5056056;28;20470;-75
2022/03/12 11:49:42;;;;;;;15.20;10.77;;;15.30;19.50;;;;;;5054839;28;20513;-77
2022/03/12 11:52:11;;;;;;;16.73;12.27;;;15.50;19.50;;;;;;5042443;28;20620;-75
2022/03/12 11:54:43;;;;;;;17.67;12.17;;;15.50;19.00;;;;;;5038323;28;20484;-75
2022/03/12 11:57:11;;;;;;;13.63;10.40;;;15.60;19.60;;;;;;5038557;28;20426;-76
2022/03/12 11:59:38;;;;;;;16.10;10.97;;;15.40;20.60;;;;;;5038193;28;20436;-75
2022/03/12 12:02:26;;;;;;;13.40;10.80;;;15.40;20.30;;;;;;5038791;28;20456;-75
2022/03/12 12:04:55;;;;;;;11.80;9.83;;;15.20;20.80;;;;;;5037765;28;20474;-76
2022/03/12 12:07:24;;;;;;;15.20;11.07;;;15.30;22.20;;;;;;5040107;28;20827;-76
2022/03/12 12:09:51;;;;;;;12.97;9.83;;;15.50;20.90;;;;;;5041145;28;20457;-76
2022/03/12 12:12:21;;;;;;;13.93;10.40;;;15.60;20.80;;;;;;5036295;28;20946;-76
2022/03/12 12:14:48;;;;;;;13.80;11.07;;;15.10;20.70;;;;;;5040374;28;20490;-75
2022/03/12 12:17:15;;;;;;;11.77;10.20;;;15.20;20.10;;;;;;5044666;28;20537;-74
2022/03/12 12:19:42;;;;;;;12.63;9.67;;;15.60;19.70;;;;;;5037901;28;20500;-75
2022/03/12 12:22:09;;;;;;;12.27;10.07;;;15.70;19.90;;;;;;5043005;28;20477;-76
2022/03/12 12:24:39;;;;;;;11.00;9.07;;;15.50;20.20;;;;;;5043724;28;20533;-76
2022/03/12 12:27:08;;;;;;;14.03;10.23;;;15.20;20.80;;;;;;5037724;28;20405;-76
2022/03/12 12:29:46;;;;;;;14.30;9.37;;;15.30;21.60;;;;;;5035946;28;20821;-74
2022/03/12 12:32:15;;;;;;;13.77;9.90;;;15.50;20.60;;;;;;5035322;28;20450;-74
2022/03/12 12:35:10;;;;;;;17.93;10.07;;;15.50;20.60;;;;;;5035441;28;20532;-75
2022/03/12 12:37:46;;;;;;;13.13;10.67;;;15.70;21.20;;;;;;5034411;28;20419;-74
2022/03/12 12:40:32;;;;;;;13.17;9.77;;;15.60;20.80;;;;;;5039839;28;20408;-75
2022/03/12 12:43:05;;;;;;;12.97;9.10;;;15.70;20.30;;;;;;5034194;28;20465;-74
2022/03/12 12:45:36;;;;;;;11.63;8.93;;;15.50;21.20;;;;;;5033867;28;20536;-74